createdAt,value
2023-02-26T00:02:03.757Z,93.97
2023-02-26T00:04:31.663Z,81.25
2023-02-26T00:06:59.521Z,90.72
2023-02-26T00:09:28.183Z,83.60
2023-02-26T00:11:56.271Z,83.50
2023-02-26T00:14:24.899Z,86.68
2023-02-26T00:17:11.954Z,90.28
2023-02-26T00:19:40.115Z,84.55
2023-02-26T00:22:11.968Z,81.68
2023-02-26T00:24:39.955Z,85.18
2023-02-26T00:27:07.954Z,91.70
2023-02-26T00:29:35.863Z,86.70
2023-02-26T00:32:04.042Z,82.95
2023-02-26T00:34:32.196Z,89.18
2023-02-26T00:37:18.809Z,102.15
2023-02-26T00:39:59.057Z,84.97
2023-02-26T00:42:27.137Z,92.38
2023-02-26T00:44:55.352Z,79.93
2023-02-26T00:47:41.861Z,78.47
2023-02-26T00:50:23.367Z,82.60
2023-02-26T00:52:51.720Z,91.88
2023-02-26T00:55:20.051Z,90.70
2023-02-26T00:57:47.876Z,85.47
2023-02-26T01:00:16.359Z,86.15
2023-02-26T01:02:44.488Z,78.57
2023-02-26T01:05:12.789Z,80.25
2023-02-26T01:07:59.486Z,74.90
2023-02-26T01:10:27.884Z,78.13
2023-02-26T01:12:57.014Z,78.57
2023-02-26T01:15:25.469Z,76.38
2023-02-26T01:18:06.442Z,73.45
2023-02-26T01:20:39.423Z,69.85
2023-02-26T01:23:09.706Z,66.45
2023-02-26T01:25:40.749Z,78.70
2023-02-26T01:28:08.807Z,77.55
2023-02-26T01:30:37.436Z,82.30
2023-02-26T01:33:08.496Z,78.88
2023-02-26T01:35:36.514Z,74.55
2023-02-26T01:38:10.436Z,71.90
2023-02-26T01:40:41.499Z,80.35
2023-02-26T01:43:13.902Z,78.20
2023-02-26T01:46:04.799Z,77.60
2023-02-26T01:48:37.097Z,78.63
2023-02-26T01:51:06.359Z,82.10
2023-02-26T01:53:34.383Z,84.35
2023-02-26T01:56:07.245Z,77.38
2023-02-26T01:58:36.521Z,83.10
2023-02-26T02:01:05.121Z,84.45
2023-02-26T02:03:34.511Z,78.95
2023-02-26T02:06:07.739Z,77.35
2023-02-26T02:11:04.998Z,84.32
2023-02-26T02:13:32.892Z,84.72
2023-02-26T02:16:00.826Z,84.07
2023-02-26T02:18:44.233Z,72.97
2023-02-26T02:21:15.102Z,80.60
2023-02-26T02:23:46.708Z,80.97
2023-02-26T02:26:14.796Z,80.50
2023-02-26T02:29:01.651Z,58.15
2023-02-26T02:31:33.312Z,40.17
2023-02-26T02:34:09.886Z,20.67
2023-02-26T02:36:50.087Z,12.98
2023-02-26T02:39:25.387Z,18.65
2023-02-26T02:41:57.100Z,21.55
2023-02-26T02:44:27.043Z,10.18
2023-02-26T02:46:57.134Z,9.90
2023-02-26T02:49:33.172Z,4.45
2023-02-26T02:52:04.427Z,6.20
2023-02-26T02:54:37.317Z,3.08
2023-02-26T02:57:10.640Z,6.40
2023-02-26T02:59:44.548Z,9.48
2023-02-26T03:02:14.977Z,4.50
2023-02-26T03:04:43.591Z,2.75
2023-02-26T03:07:11.749Z,5.35
2023-02-26T03:09:39.612Z,2.55
2023-02-26T03:12:07.618Z,2.95
2023-02-26T03:14:35.646Z,2.92
2023-02-26T03:17:22.379Z,2.28
2023-02-26T03:20:07.969Z,2.75
2023-02-26T03:22:41.137Z,3.00
2023-02-26T03:25:18.963Z,3.88
2023-02-26T03:27:53.484Z,2.05
2023-02-26T03:30:21.530Z,1.85
2023-02-26T03:32:56.825Z,2.42
2023-02-26T03:35:36.101Z,2.42
2023-02-26T03:38:07.153Z,1.92
2023-02-26T03:40:38.513Z,1.25
2023-02-26T03:43:14.962Z,3.25
2023-02-26T03:45:44.714Z,2.42
2023-02-26T03:48:14.406Z,1.27
2023-02-26T03:50:47.685Z,0.68
2023-02-26T03:53:56.502Z,1.53
2023-02-26T03:56:30.150Z,0.50
2023-02-26T03:59:17.671Z,5.30
2023-02-26T04:01:48.711Z,2.45
2023-02-26T04:04:27.555Z,0.75
2023-02-26T04:06:56.180Z,0.30
2023-02-26T04:09:24.208Z,0.85
2023-02-26T04:11:53.861Z,0.95
2023-02-26T04:14:21.904Z,0.75
2023-02-26T04:16:49.863Z,2.45
2023-02-26T04:19:17.915Z,1.70
2023-02-26T04:21:47.049Z,2.13
2023-02-26T04:24:17.907Z,5.13
2023-02-26T04:26:45.896Z,1.40
2023-02-26T04:29:14.421Z,3.80
2023-02-26T04:31:42.653Z,0.45
2023-02-26T04:34:11.760Z,0.88
2023-02-26T04:36:41.007Z,0.65
2023-02-26T04:39:10.815Z,1.95
2023-02-26T04:41:39.656Z,1.67
2023-02-26T04:44:07.671Z,1.92
2023-02-26T04:46:37.926Z,3.15
2023-02-26T04:49:06.012Z,4.28
2023-02-26T04:51:33.941Z,4.78
2023-02-26T04:54:01.812Z,0.88
2023-02-26T04:56:29.878Z,0.25
2023-02-26T04:58:58.188Z,0.28
2023-02-26T05:01:29.780Z,0.68
2023-02-26T05:03:59.377Z,2.17
2023-02-26T05:06:27.509Z,0.30
2023-02-26T05:08:55.651Z,1.92
2023-02-26T05:11:23.738Z,1.42
2023-02-26T05:13:51.603Z,1.50
2023-02-26T05:16:19.470Z,0.93
2023-02-26T05:18:47.489Z,2.25
2023-02-26T05:21:15.518Z,4.60
2023-02-26T05:23:43.664Z,0.73
2023-02-26T05:26:11.541Z,0.68
2023-02-26T05:28:39.664Z,2.78
2023-02-26T05:31:07.860Z,0.38
2023-02-26T05:33:36.508Z,0.20
2023-02-26T05:36:04.512Z,0.80
2023-02-26T05:38:32.389Z,4.18
2023-02-26T05:41:00.609Z,0.55
2023-02-26T05:43:28.795Z,0.50
2023-02-26T05:45:56.745Z,0.95
2023-02-26T05:48:24.703Z,0.52
2023-02-26T05:50:52.884Z,0.20
2023-02-26T05:53:20.927Z,0.55
2023-02-26T05:55:49.128Z,7.63
2023-02-26T05:58:17.516Z,0.35
2023-02-26T06:00:45.328Z,1.15
2023-02-26T06:03:16.032Z,0.73
2023-02-26T06:05:44.033Z,0.82
2023-02-26T06:08:15.609Z,10.23
2023-02-26T06:10:44.160Z,1.88
2023-02-26T06:13:12.040Z,1.17
2023-02-26T06:15:39.885Z,0.52
2023-02-26T06:18:08.698Z,0.55
2023-02-26T06:20:37.241Z,0.55
2023-02-26T06:23:05.253Z,1.27
2023-02-26T06:25:33.045Z,0.57
2023-02-26T06:28:00.999Z,7.22
2023-02-26T06:30:28.898Z,1.63
2023-02-26T06:32:56.888Z,0.50
2023-02-26T06:35:24.795Z,4.13
2023-02-26T06:37:52.632Z,3.28
2023-02-26T06:40:20.654Z,0.30
2023-02-26T06:42:48.491Z,0.98
2023-02-26T06:45:16.946Z,0.40
2023-02-26T06:47:45.255Z,0.20
2023-02-26T06:50:13.851Z,0.75
2023-02-26T06:52:41.656Z,0.70
2023-02-26T06:55:09.922Z,0.63
2023-02-26T06:57:37.825Z,7.55
2023-02-26T07:00:07.025Z,2.80
2023-02-26T07:02:35.148Z,2.47
2023-02-26T07:05:03.129Z,0.45
2023-02-26T07:07:31.095Z,0.77
2023-02-26T07:09:58.887Z,1.60
2023-02-26T07:12:26.878Z,1.08
2023-02-26T07:14:54.685Z,5.93
2023-02-26T07:17:22.647Z,3.13
2023-02-26T07:19:51.533Z,0.98
2023-02-26T07:22:21.926Z,0.75
2023-02-26T07:24:51.247Z,2.03
2023-02-26T07:27:20.364Z,4.47
2023-02-26T07:29:48.287Z,0.55
2023-02-26T07:32:16.213Z,0.85
2023-02-26T07:34:44.201Z,0.50
2023-02-26T07:37:11.953Z,0.45
2023-02-26T07:39:40.071Z,1.95
2023-02-26T07:42:07.974Z,0.63
2023-02-26T07:44:36.127Z,0.70
2023-02-26T07:47:04.294Z,3.28
2023-02-26T07:49:34.121Z,1.73
2023-02-26T07:52:02.133Z,2.53
2023-02-26T07:54:30.065Z,2.53
2023-02-26T07:56:57.827Z,2.97
2023-02-26T07:59:25.791Z,1.02
2023-02-26T08:01:53.744Z,1.00
2023-02-26T08:04:21.693Z,1.65
2023-02-26T08:06:49.454Z,1.42
2023-02-26T08:09:17.513Z,1.02
2023-02-26T08:11:45.502Z,0.70
2023-02-26T08:14:13.541Z,1.98
2023-02-26T08:16:41.369Z,1.27
2023-02-26T08:19:09.244Z,0.80
2023-02-26T08:21:37.144Z,1.13
2023-02-26T08:24:05.232Z,0.43
2023-02-26T08:26:35.777Z,0.95
2023-02-26T08:29:03.718Z,0.70
2023-02-26T08:31:32.296Z,1.35
2023-02-26T08:34:00.215Z,2.15
2023-02-26T08:36:28.404Z,1.08
2023-02-26T08:38:56.437Z,1.27
2023-02-26T08:41:24.965Z,2.42
2023-02-26T08:43:53.105Z,1.90
2023-02-26T08:46:21.159Z,2.25
2023-02-26T08:48:49.096Z,2.13
2023-02-26T08:51:17.011Z,2.42
2023-02-26T08:53:51.042Z,1.20
2023-02-26T08:56:19.254Z,1.23
2023-02-26T08:58:47.232Z,1.55
2023-02-26T09:01:15.252Z,0.65
2023-02-26T09:03:43.089Z,1.05
2023-02-26T09:06:11.119Z,2.03
2023-02-26T09:08:39.500Z,1.50
2023-02-26T09:11:07.367Z,4.35
2023-02-26T09:13:35.363Z,2.55
2023-02-26T09:16:03.307Z,3.22
2023-02-26T09:18:31.825Z,5.63
2023-02-26T09:20:59.933Z,4.38
2023-02-26T09:23:28.076Z,2.33
2023-02-26T09:25:57.017Z,2.63
2023-02-26T09:28:25.186Z,2.40
2023-02-26T09:30:54.182Z,5.15
2023-02-26T09:33:23.294Z,2.25
2023-02-26T09:35:51.760Z,2.90
2023-02-26T09:38:20.106Z,2.13
2023-02-26T09:40:53.640Z,1.83
2023-02-26T09:43:34.880Z,1.77
2023-02-26T09:46:05.983Z,2.35
2023-02-26T09:48:35.903Z,2.03
2023-02-26T09:51:05.011Z,3.25
2023-02-26T09:53:35.168Z,1.60
2023-02-26T09:56:05.942Z,1.13
2023-02-26T09:58:38.873Z,1.05
2023-02-26T10:01:16.196Z,1.27
2023-02-26T10:04:03.050Z,0.98
2023-02-26T10:06:32.689Z,16.88
2023-02-26T10:09:06.794Z,3.03
2023-02-26T10:11:38.829Z,1.90
2023-02-26T10:14:17.755Z,1.80
2023-02-26T10:16:49.101Z,1.88
2023-02-26T10:19:19.765Z,1.60
2023-02-26T10:21:50.556Z,1.90
2023-02-26T10:24:21.471Z,2.38
2023-02-26T10:26:56.261Z,2.28
2023-02-26T10:29:27.148Z,5.32
2023-02-26T10:31:58.787Z,1.77
2023-02-26T10:34:38.338Z,1.60
2023-02-26T10:37:12.296Z,1.98
2023-02-26T10:39:41.042Z,2.05
2023-02-26T10:42:18.211Z,1.30
2023-02-26T10:44:56.743Z,2.08
2023-02-26T10:47:39.741Z,1.92
2023-02-26T10:50:12.429Z,1.15
2023-02-26T10:52:43.032Z,1.33
2023-02-26T10:55:46.696Z,2.38
2023-02-26T10:58:34.816Z,2.75
2023-02-26T11:01:02.812Z,10.48
2023-02-26T11:03:39.696Z,3.17
2023-02-26T11:06:08.423Z,1.83
2023-02-26T11:08:41.604Z,1.33
2023-02-26T11:11:10.206Z,1.92
2023-02-26T11:13:39.167Z,2.33
2023-02-26T11:16:12.658Z,2.70
2023-02-26T11:18:41.990Z,1.80
2023-02-26T11:21:10.299Z,2.13
2023-02-26T11:23:40.017Z,2.58
2023-02-26T11:26:09.185Z,2.05
2023-02-26T11:28:38.490Z,2.83
2023-02-26T11:31:07.665Z,2.47
2023-02-26T11:33:38.234Z,1.73
2023-02-26T11:36:10.064Z,1.33
2023-02-26T11:38:49.988Z,1.58
2023-02-26T11:41:17.944Z,1.27
2023-02-26T11:43:48.032Z,2.80
2023-02-26T11:46:16.328Z,2.90
2023-02-26T11:48:51.990Z,1.77
2023-02-26T11:51:27.006Z,3.97
2023-02-26T11:54:06.081Z,7.57
2023-02-26T11:56:39.611Z,5.22
2023-02-26T11:59:11.717Z,1.63
2023-02-26T12:01:48.787Z,20.42
2023-02-26T12:04:20.240Z,1.45
2023-02-26T12:06:50.363Z,2.13
2023-02-26T12:09:18.416Z,1.08
2023-02-26T12:11:51.920Z,1.10
2023-02-26T12:14:22.881Z,2.33
2023-02-26T12:16:53.987Z,1.08
2023-02-26T12:19:42.339Z,2.85
2023-02-26T12:22:26.905Z,2.55
2023-02-26T12:25:10.123Z,1.77
2023-02-26T12:27:58.785Z,1.98
2023-02-26T12:30:45.517Z,14.02
2023-02-26T12:33:16.463Z,6.93
2023-02-26T12:35:44.417Z,4.25
2023-02-26T12:38:15.438Z,1.92
2023-02-26T12:41:09.782Z,1.35
2023-02-26T12:43:55.256Z,1.92
2023-02-26T12:46:29.333Z,2.05
2023-02-26T12:49:00.208Z,2.50
2023-02-26T12:51:31.289Z,1.67
2023-02-26T12:54:08.548Z,2.33
2023-02-26T12:57:02.960Z,1.70
2023-02-26T12:59:30.835Z,3.92
2023-02-26T13:02:17.522Z,1.98
2023-02-26T13:05:11.887Z,4.18
2023-02-26T13:07:51.828Z,2.13
2023-02-26T13:10:28.322Z,1.88
2023-02-26T13:12:59.119Z,1.13
2023-02-26T13:15:36.309Z,2.55
2023-02-26T13:18:05.444Z,1.55
2023-02-26T13:20:34.585Z,1.50
2023-02-26T13:23:02.493Z,0.93
2023-02-26T13:25:40.049Z,1.27
2023-02-26T13:28:25.305Z,1.48
2023-02-26T13:30:54.550Z,0.50
2023-02-26T13:33:25.969Z,0.95
2023-02-26T13:35:54.568Z,1.90
2023-02-26T13:38:42.043Z,0.95
2023-02-26T13:41:16.364Z,0.50
2023-02-26T13:43:59.628Z,1.23
2023-02-26T13:46:27.500Z,0.57
2023-02-26T13:49:14.153Z,0.90
2023-02-26T13:51:45.805Z,0.77
2023-02-26T13:54:17.440Z,1.65
2023-02-26T13:57:04.270Z,1.67
2023-02-26T13:59:50.737Z,0.80
2023-02-26T14:02:21.754Z,1.08
2023-02-26T14:04:53.956Z,0.60
2023-02-26T14:07:40.633Z,0.50
2023-02-26T14:10:24.552Z,1.30
2023-02-26T14:13:21.835Z,0.82
2023-02-26T14:15:54.024Z,1.27
2023-02-26T14:18:32.585Z,0.50
2023-02-26T14:21:19.220Z,0.95
2023-02-26T14:23:50.016Z,0.93
2023-02-26T14:26:19.662Z,2.80
2023-02-26T14:28:56.437Z,1.02
2023-02-26T14:31:27.469Z,0.70
2023-02-26T14:34:16.011Z,0.70
2023-02-26T14:36:47.560Z,1.58
2023-02-26T14:39:41.870Z,1.20
2023-02-26T14:42:14.796Z,1.55
2023-02-26T14:44:45.180Z,0.95
2023-02-26T14:47:13.511Z,1.10
2023-02-26T14:49:42.826Z,2.78
2023-02-26T14:52:13.714Z,1.75
2023-02-26T14:54:49.985Z,3.72
2023-02-26T14:57:27.185Z,0.80
2023-02-26T15:00:01.060Z,1.88
2023-02-26T15:02:45.406Z,0.68
2023-02-26T15:05:22.252Z,0.85
2023-02-26T15:07:59.796Z,0.85
2023-02-26T15:10:36.841Z,2.15
2023-02-26T15:13:20.091Z,1.63
2023-02-26T15:15:47.973Z,4.60
2023-02-26T15:18:22.299Z,0.60
2023-02-26T15:21:02.466Z,2.00
2023-02-26T15:23:48.392Z,3.50
2023-02-26T15:26:42.666Z,1.67
2023-02-26T15:29:11.823Z,10.57
2023-02-26T15:31:54.338Z,2.17
2023-02-26T15:34:22.567Z,1.48
2023-02-26T15:36:53.342Z,1.20
2023-02-26T15:39:23.877Z,0.75
2023-02-26T15:41:52.705Z,1.58
2023-02-26T15:44:26.706Z,1.42
2023-02-26T15:47:08.107Z,2.92
2023-02-26T15:49:36.115Z,4.70
2023-02-26T15:52:05.597Z,35.83
2023-02-26T15:54:36.383Z,10.80
2023-02-26T15:57:04.748Z,12.02
2023-02-26T15:59:33.473Z,2.63
2023-02-26T16:02:03.172Z,1.88
2023-02-26T16:04:31.037Z,3.30
2023-02-26T16:06:59.105Z,2.75
2023-02-26T16:09:29.288Z,2.85
2023-02-26T16:11:59.216Z,5.13
2023-02-26T16:14:30.583Z,3.22
2023-02-26T16:16:58.747Z,3.92
2023-02-26T16:19:41.602Z,4.30
2023-02-26T16:22:21.932Z,5.65
2023-02-26T16:24:57.073Z,5.65
2023-02-26T16:27:26.476Z,3.70
2023-02-26T16:29:55.938Z,16.50
2023-02-26T16:32:24.794Z,4.05
2023-02-26T16:34:57.633Z,4.22
2023-02-26T16:37:34.566Z,4.85
2023-02-26T16:40:11.750Z,2.88
2023-02-26T16:42:52.331Z,4.43
2023-02-26T16:45:43.031Z,1.90
2023-02-26T16:48:14.286Z,3.03
2023-02-26T16:50:42.631Z,3.25
2023-02-26T16:53:18.651Z,59.67
2023-02-26T16:55:54.828Z,3.95
2023-02-26T16:58:24.299Z,2.60
2023-02-26T17:00:58.183Z,3.10
2023-02-26T17:03:26.979Z,4.75
2023-02-26T17:06:03.287Z,4.80
2023-02-26T17:08:45.149Z,3.80
2023-02-26T17:11:20.511Z,3.83
2023-02-26T17:13:58.073Z,4.15
2023-02-26T17:16:25.918Z,3.08
2023-02-26T17:18:53.936Z,7.00
2023-02-26T17:21:21.976Z,15.35
2023-02-26T17:23:50.030Z,7.38
2023-02-26T17:26:17.820Z,2.38
2023-02-26T17:28:45.899Z,2.65
2023-02-26T17:31:15.222Z,2.90
2023-02-26T17:33:43.979Z,4.30
2023-02-26T17:36:15.033Z,2.70
2023-02-26T17:38:47.118Z,3.03
2023-02-26T17:41:19.397Z,2.70
2023-02-26T17:43:47.331Z,6.22
2023-02-26T17:46:15.206Z,31.92
2023-02-26T17:48:43.357Z,4.72
2023-02-26T17:51:13.794Z,2.47
2023-02-26T17:53:44.267Z,3.88
2023-02-26T17:56:15.647Z,3.38
2023-02-26T17:58:43.843Z,2.25
2023-02-26T18:01:12.084Z,4.50
2023-02-26T18:03:40.217Z,3.67
2023-02-26T18:06:08.313Z,2.65
2023-02-26T18:08:36.246Z,2.83
2023-02-26T18:11:04.858Z,3.20
2023-02-26T18:13:33.306Z,2.58
2023-02-26T18:16:02.955Z,3.38
2023-02-26T18:18:32.070Z,3.10
2023-02-26T18:21:01.166Z,3.35
2023-02-26T18:23:29.013Z,4.22
2023-02-26T18:25:56.912Z,3.55
2023-02-26T18:28:28.870Z,4.80
2023-02-26T18:30:57.361Z,57.35
2023-02-26T18:33:26.049Z,93.57
2023-02-26T18:35:56.086Z,16.70
2023-02-26T18:38:25.564Z,6.20
2023-02-26T18:40:53.899Z,6.97
2023-02-26T18:43:27.289Z,4.57
2023-02-26T18:45:57.596Z,4.32
2023-02-26T18:48:25.750Z,5.45
2023-02-26T18:50:56.191Z,5.32
2023-02-26T18:53:27.283Z,4.38
2023-02-26T18:56:06.360Z,9.98
2023-02-26T18:58:35.515Z,5.07
2023-02-26T19:01:05.052Z,5.28
2023-02-26T19:03:33.112Z,4.70
2023-02-26T19:06:02.831Z,8.02
2023-02-26T19:08:31.236Z,9.10
2023-02-26T19:10:59.201Z,4.68
2023-02-26T19:13:27.292Z,3.80
2023-02-26T19:15:59.383Z,5.32
2023-02-26T19:18:27.283Z,5.10
2023-02-26T19:20:55.367Z,2.80
2023-02-26T19:23:23.259Z,5.20
2023-02-26T19:25:54.319Z,3.65
2023-02-26T19:28:22.337Z,4.03
2023-02-26T19:30:57.008Z,3.97
2023-02-26T19:33:29.409Z,9.93
2023-02-26T19:35:57.402Z,7.53
2023-02-26T19:38:27.927Z,7.63
2023-02-26T19:40:55.808Z,5.22
2023-02-26T19:43:23.958Z,6.28
2023-02-26T19:45:51.936Z,5.90
2023-02-26T19:48:21.281Z,4.18
2023-02-26T19:50:52.694Z,4.35
2023-02-26T19:53:20.685Z,3.13
2023-02-26T19:56:21.175Z,4.10
2023-02-26T19:58:50.211Z,3.15
2023-02-26T20:01:18.959Z,4.15
2023-02-26T20:03:48.945Z,6.85
2023-02-26T20:06:16.978Z,6.07
2023-02-26T20:08:47.011Z,4.75
2023-02-26T20:11:15.237Z,4.93
2023-02-26T20:13:43.085Z,3.95
2023-02-26T20:16:11.635Z,5.65
2023-02-26T20:18:39.876Z,3.33
2023-02-26T20:21:10.419Z,4.68
2023-02-26T20:23:39.293Z,4.30
2023-02-26T20:26:09.524Z,6.05
2023-02-26T20:28:37.940Z,4.90
2023-02-26T20:31:07.188Z,2.70
2023-02-26T20:33:37.487Z,3.67
2023-02-26T20:36:05.994Z,5.70
2023-02-26T20:38:35.164Z,3.00
2023-02-26T20:41:03.462Z,4.40
2023-02-26T20:43:31.618Z,4.25
2023-02-26T20:45:59.592Z,3.60
2023-02-26T20:48:27.864Z,2.72
2023-02-26T20:51:02.771Z,5.53
2023-02-26T20:53:30.568Z,3.30
2023-02-26T20:55:58.398Z,7.38
2023-02-26T20:58:29.781Z,3.50
2023-02-26T21:00:58.115Z,5.70
2023-02-26T21:03:26.706Z,7.63
2023-02-26T21:05:54.712Z,6.70
2023-02-26T21:08:23.578Z,5.35
2023-02-26T21:10:52.092Z,4.55
2023-02-26T21:13:20.259Z,5.90
2023-02-26T21:15:50.067Z,3.83
2023-02-26T21:18:18.059Z,3.90
2023-02-26T21:20:45.931Z,3.33
2023-02-26T21:23:16.943Z,3.05
2023-02-26T21:25:44.837Z,6.80
2023-02-26T21:28:12.901Z,6.90
2023-02-26T21:30:40.786Z,6.35
2023-02-26T21:33:09.052Z,5.05
2023-02-26T21:35:40.467Z,8.10
2023-02-26T21:38:09.230Z,5.35
2023-02-26T21:40:37.649Z,5.45
2023-02-26T21:43:05.525Z,5.28
2023-02-26T21:45:36.188Z,2.95
2023-02-26T21:48:04.712Z,5.72
2023-02-26T21:50:33.588Z,5.82
2023-02-26T21:53:01.432Z,4.43
2023-02-26T21:55:29.381Z,3.50
2023-02-26T21:57:57.395Z,4.03
2023-02-26T22:00:25.224Z,3.22
2023-02-26T22:02:53.272Z,2.33
2023-02-26T22:05:21.087Z,3.63
2023-02-26T22:07:49.234Z,2.33
2023-02-26T22:10:17.323Z,2.70
2023-02-26T22:12:45.085Z,2.58
2023-02-26T22:15:13.565Z,3.70
2023-02-26T22:17:41.475Z,5.63
2023-02-26T22:20:10.008Z,3.65
2023-02-26T22:22:38.265Z,4.43
2023-02-26T22:25:06.924Z,2.97
2023-02-26T22:27:34.939Z,10.50
2023-02-26T22:30:06.801Z,2.95
2023-02-26T22:32:34.912Z,2.63
2023-02-26T22:35:03.021Z,3.05
2023-02-26T22:37:30.994Z,2.70
2023-02-26T22:40:00.050Z,3.25
2023-02-26T22:42:28.120Z,3.25
2023-02-26T22:44:56.105Z,2.50
2023-02-26T22:47:23.986Z,3.65
2023-02-26T22:49:51.913Z,3.20
2023-02-26T22:52:19.755Z,2.40
2023-02-26T22:54:50.286Z,2.22
2023-02-26T22:57:18.157Z,2.83
2023-02-26T22:59:46.129Z,4.00
2023-02-26T23:02:14.195Z,1.52
2023-02-26T23:04:43.955Z,2.58
2023-02-26T23:07:11.969Z,2.28
2023-02-26T23:09:43.172Z,2.15
2023-02-26T23:12:11.364Z,1.60
2023-02-26T23:14:40.079Z,3.05
2023-02-26T23:17:09.233Z,2.78
2023-02-26T23:19:38.903Z,1.65
2023-02-26T23:22:06.818Z,3.08
2023-02-26T23:24:34.826Z,2.30
2023-02-26T23:27:02.704Z,6.80
2023-02-26T23:29:30.681Z,3.40
2023-02-26T23:31:58.651Z,5.70
2023-02-26T23:34:26.837Z,2.83
2023-02-26T23:36:54.682Z,1.80
2023-02-26T23:39:22.710Z,1.67
2023-02-26T23:41:50.486Z,1.80
2023-02-26T23:44:18.411Z,2.17
2023-02-26T23:46:46.429Z,1.50
2023-02-26T23:49:16.120Z,1.98
2023-02-26T23:51:44.462Z,3.78
2023-02-26T23:54:12.670Z,2.10
2023-02-26T23:56:40.780Z,2.10
2023-02-26T23:59:08.736Z,2.22
